sensor_id;sensor_type;location;lat;lon;timestamp;temperature;humidity
1329;DHT22;658;48.820;9.354;2023-04-28T00:00:19;23.60;39.60
1329;DHT22;658;48.820;9.354;2023-04-28T00:04:22;23.60;39.60
1329;DHT22;658;48.820;9.354;2023-04-28T00:08:24;23.60;39.70
1329;DHT22;658;48.820;9.354;2023-04-28T00:12:28;23.60;39.80
1329;DHT22;658;48.820;9.354;2023-04-28T00:16:29;23.50;39.70
1329;DHT22;658;48.820;9.354;2023-04-28T00:20:30;23.60;40.30
1329;DHT22;658;48.820;9.354;2023-04-28T00:24:30;23.50;39.80
1329;DHT22;658;48.820;9.354;2023-04-28T00:28:35;23.50;39.80
1329;DHT22;658;48.820;9.354;2023-04-28T00:32:38;23.50;39.90
1329;DHT22;658;48.820;9.354;2023-04-28T00:36:41;23.50;39.90
1329;DHT22;658;48.820;9.354;2023-04-28T00:40:44;23.50;39.90
1329;DHT22;658;48.820;9.354;2023-04-28T00:44:47;23.50;39.90
1329;DHT22;658;48.820;9.354;2023-04-28T00:48:50;23.40;39.80
1329;DHT22;658;48.820;9.354;2023-04-28T00:52:51;23.40;39.90
1329;DHT22;658;48.820;9.354;2023-04-28T00:56:53;23.40;39.80
1329;DHT22;658;48.820;9.354;2023-04-28T01:01:02;23.40;39.80
1329;DHT22;658;48.820;9.354;2023-04-28T01:05:02;23.40;39.90
1329;DHT22;658;48.820;9.354;2023-04-28T01:09:03;23.30;39.90
1329;DHT22;658;48.820;9.354;2023-04-28T01:13:10;23.30;39.90
1329;DHT22;658;48.820;9.354;2023-04-28T01:17:15;23.30;39.90
1329;DHT22;658;48.820;9.354;2023-04-28T01:21:29;23.30;40.00
1329;DHT22;658;48.820;9.354;2023-04-28T01:25:31;23.30;40.00
1329;DHT22;658;48.820;9.354;2023-04-28T01:29:32;23.30;40.00
1329;DHT22;658;48.820;9.354;2023-04-28T01:33:32;23.30;40.10
1329;DHT22;658;48.820;9.354;2023-04-28T01:37:36;23.30;40.10
1329;DHT22;658;48.820;9.354;2023-04-28T01:41:36;23.20;40.10
1329;DHT22;658;48.820;9.354;2023-04-28T01:45:39;23.20;40.10
1329;DHT22;658;48.820;9.354;2023-04-28T01:49:40;23.20;40.00
1329;DHT22;658;48.820;9.354;2023-04-28T01:53:43;23.20;40.00
1329;DHT22;658;48.820;9.354;2023-04-28T01:57:44;23.20;40.10
1329;DHT22;658;48.820;9.354;2023-04-28T02:01:46;23.20;40.10
1329;DHT22;658;48.820;9.354;2023-04-28T02:05:47;23.20;40.10
1329;DHT22;658;48.820;9.354;2023-04-28T02:09:47;23.20;40.20
1329;DHT22;658;48.820;9.354;2023-04-28T02:13:50;23.20;40.20
1329;DHT22;658;48.820;9.354;2023-04-28T02:17:53;23.10;40.10
1329;DHT22;658;48.820;9.354;2023-04-28T02:21:54;23.10;40.20
1329;DHT22;658;48.820;9.354;2023-04-28T02:26:02;23.10;40.20
1329;DHT22;658;48.820;9.354;2023-04-28T02:30:06;23.10;40.20
1329;DHT22;658;48.820;9.354;2023-04-28T02:34:07;23.10;40.20
1329;DHT22;658;48.820;9.354;2023-04-28T02:38:07;23.10;40.30
1329;DHT22;658;48.820;9.354;2023-04-28T02:42:10;23.10;40.30
1329;DHT22;658;48.820;9.354;2023-04-28T02:46:18;23.10;40.30
1329;DHT22;658;48.820;9.354;2023-04-28T02:50:18;23.00;39.80
1329;DHT22;658;48.820;9.354;2023-04-28T02:54:21;23.00;40.20
1329;DHT22;658;48.820;9.354;2023-04-28T02:58:27;23.00;40.30
1329;DHT22;658;48.820;9.354;2023-04-28T03:02:32;23.00;40.20
1329;DHT22;658;48.820;9.354;2023-04-28T03:06:32;23.00;40.30
1329;DHT22;658;48.820;9.354;2023-04-28T03:10:33;23.00;40.30
1329;DHT22;658;48.820;9.354;2023-04-28T03:14:36;23.00;40.30
1329;DHT22;658;48.820;9.354;2023-04-28T03:18:36;23.00;40.30
1329;DHT22;658;48.820;9.354;2023-04-28T03:22:39;23.00;40.30
1329;DHT22;658;48.820;9.354;2023-04-28T03:26:40;23.00;40.40
1329;DHT22;658;48.820;9.354;2023-04-28T03:30:40;23.00;40.50
1329;DHT22;658;48.820;9.354;2023-04-28T03:34:43;23.00;40.40
1329;DHT22;658;48.820;9.354;2023-04-28T03:38:46;23.00;40.50
1329;DHT22;658;48.820;9.354;2023-04-28T03:42:49;22.90;40.50
1329;DHT22;658;48.820;9.354;2023-04-28T03:46:54;22.90;40.40
1329;DHT22;658;48.820;9.354;2023-04-28T03:50:57;22.90;40.50
1329;DHT22;658;48.820;9.354;2023-04-28T03:54:58;22.90;40.50
1329;DHT22;658;48.820;9.354;2023-04-28T03:58:58;22.90;40.50
1329;DHT22;658;48.820;9.354;2023-04-28T04:03:01;22.90;40.50
1329;DHT22;658;48.820;9.354;2023-04-28T04:07:01;22.90;40.60
1329;DHT22;658;48.820;9.354;2023-04-28T04:11:03;22.90;40.60
1329;DHT22;658;48.820;9.354;2023-04-28T04:15:06;22.90;40.60
1329;DHT22;658;48.820;9.354;2023-04-28T04:19:07;22.90;40.70
1329;DHT22;658;48.820;9.354;2023-04-28T04:23:07;22.90;40.70
1329;DHT22;658;48.820;9.354;2023-04-28T04:27:11;22.90;40.70
1329;DHT22;658;48.820;9.354;2023-04-28T04:31:11;22.80;40.70
1329;DHT22;658;48.820;9.354;2023-04-28T04:35:14;22.90;40.80
1329;DHT22;658;48.820;9.354;2023-04-28T04:39:17;22.80;40.70
1329;DHT22;658;48.820;9.354;2023-04-28T04:43:18;22.80;40.70
1329;DHT22;658;48.820;9.354;2023-04-28T04:47:18;22.80;40.70
1329;DHT22;658;48.820;9.354;2023-04-28T04:51:19;22.80;40.80
1329;DHT22;658;48.820;9.354;2023-04-28T04:55:20;22.80;40.90
1329;DHT22;658;48.820;9.354;2023-04-28T04:59:22;22.80;40.90
1329;DHT22;658;48.820;9.354;2023-04-28T05:03:23;22.80;40.80
1329;DHT22;658;48.820;9.354;2023-04-28T05:07:25;22.80;41.00
1329;DHT22;658;48.820;9.354;2023-04-28T05:11:26;22.80;40.90
1329;DHT22;658;48.820;9.354;2023-04-28T05:15:27;22.80;40.90
1329;DHT22;658;48.820;9.354;2023-04-28T05:19:28;22.80;41.00
1329;DHT22;658;48.820;9.354;2023-04-28T05:23:30;22.80;41.00
1329;DHT22;658;48.820;9.354;2023-04-28T05:27:33;22.80;41.10
1329;DHT22;658;48.820;9.354;2023-04-28T05:31:37;22.70;41.10
1329;DHT22;658;48.820;9.354;2023-04-28T05:35:37;22.80;41.10
1329;DHT22;658;48.820;9.354;2023-04-28T05:39:38;22.80;41.20
1329;DHT22;658;48.820;9.354;2023-04-28T05:43:41;22.70;41.20
1329;DHT22;658;48.820;9.354;2023-04-28T05:47:42;22.70;43.20
1329;DHT22;658;48.820;9.354;2023-04-28T05:51:42;22.50;44.00
1329;DHT22;658;48.820;9.354;2023-04-28T05:55:43;22.40;44.60
1329;DHT22;658;48.820;9.354;2023-04-28T05:59:44;22.30;44.70
1329;DHT22;658;48.820;9.354;2023-04-28T06:03:45;22.20;44.80
1329;DHT22;658;48.820;9.354;2023-04-28T06:07:45;22.30;44.50
1329;DHT22;658;48.820;9.354;2023-04-28T06:11:46;22.30;44.40
1329;DHT22;658;48.820;9.354;2023-04-28T06:15:46;22.30;44.10
1329;DHT22;658;48.820;9.354;2023-04-28T06:19:47;22.40;43.90
1329;DHT22;658;48.820;9.354;2023-04-28T06:23:48;22.40;43.70
1329;DHT22;658;48.820;9.354;2023-04-28T06:27:50;22.40;43.50
1329;DHT22;658;48.820;9.354;2023-04-28T06:31:51;22.50;43.40
1329;DHT22;658;48.820;9.354;2023-04-28T06:35:52;22.50;43.30
1329;DHT22;658;48.820;9.354;2023-04-28T06:39:52;22.50;43.30
1329;DHT22;658;48.820;9.354;2023-04-28T06:43:53;22.50;43.20
1329;DHT22;658;48.820;9.354;2023-04-28T06:47:54;22.50;43.10
1329;DHT22;658;48.820;9.354;2023-04-28T06:51:55;22.50;43.10
1329;DHT22;658;48.820;9.354;2023-04-28T06:55:55;22.50;43.10
1329;DHT22;658;48.820;9.354;2023-04-28T07:00:01;22.50;43.20
1329;DHT22;658;48.820;9.354;2023-04-28T07:04:01;22.60;43.30
1329;DHT22;658;48.820;9.354;2023-04-28T07:08:02;22.60;43.40
1329;DHT22;658;48.820;9.354;2023-04-28T07:12:06;22.60;43.40
1329;DHT22;658;48.820;9.354;2023-04-28T07:16:06;22.60;43.50
1329;DHT22;658;48.820;9.354;2023-04-28T07:20:07;22.60;43.60
1329;DHT22;658;48.820;9.354;2023-04-28T07:24:08;22.60;43.60
1329;DHT22;658;48.820;9.354;2023-04-28T07:28:09;22.60;43.70
1329;DHT22;658;48.820;9.354;2023-04-28T07:32:09;22.60;43.90
1329;DHT22;658;48.820;9.354;2023-04-28T07:36:10;22.60;44.00
1329;DHT22;658;48.820;9.354;2023-04-28T07:40:11;22.60;43.90
1329;DHT22;658;48.820;9.354;2023-04-28T07:44:11;22.60;44.00
1329;DHT22;658;48.820;9.354;2023-04-28T07:48:12;22.60;44.00
1329;DHT22;658;48.820;9.354;2023-04-28T07:52:13;22.60;44.10
1329;DHT22;658;48.820;9.354;2023-04-28T07:56:13;22.60;44.00
1329;DHT22;658;48.820;9.354;2023-04-28T08:00:16;22.60;44.20
1329;DHT22;658;48.820;9.354;2023-04-28T08:04:17;22.60;44.10
1329;DHT22;658;48.820;9.354;2023-04-28T08:08:20;22.60;44.40
1329;DHT22;658;48.820;9.354;2023-04-28T08:12:21;22.60;44.30
1329;DHT22;658;48.820;9.354;2023-04-28T08:16:24;22.60;44.50
1329;DHT22;658;48.820;9.354;2023-04-28T08:20:24;22.60;44.60
1329;DHT22;658;48.820;9.354;2023-04-28T08:24:28;22.60;44.40
1329;DHT22;658;48.820;9.354;2023-04-28T08:28:33;22.60;44.50
1329;DHT22;658;48.820;9.354;2023-04-28T08:32:34;22.60;45.20
1329;DHT22;658;48.820;9.354;2023-04-28T08:36:34;22.60;45.30
1329;DHT22;658;48.820;9.354;2023-04-28T08:40:36;22.60;45.20
1329;DHT22;658;48.820;9.354;2023-04-28T08:44:38;22.70;45.30
1329;DHT22;658;48.820;9.354;2023-04-28T08:48:44;22.70;45.40
1329;DHT22;658;48.820;9.354;2023-04-28T08:52:46;22.70;45.40
1329;DHT22;658;48.820;9.354;2023-04-28T08:56:47;22.80;45.40
1329;DHT22;658;48.820;9.354;2023-04-28T09:00:51;22.80;45.30
1329;DHT22;658;48.820;9.354;2023-04-28T09:04:52;22.90;45.40
1329;DHT22;658;48.820;9.354;2023-04-28T09:08:53;22.90;45.20
1329;DHT22;658;48.820;9.354;2023-04-28T09:12:54;22.90;45.10
1329;DHT22;658;48.820;9.354;2023-04-28T09:16:55;23.00;45.10
1329;DHT22;658;48.820;9.354;2023-04-28T09:21:09;23.00;45.10
1329;DHT22;658;48.820;9.354;2023-04-28T09:25:10;23.10;45.10
1329;DHT22;658;48.820;9.354;2023-04-28T09:29:14;23.10;45.00
1329;DHT22;658;48.820;9.354;2023-04-28T09:33:14;23.10;45.00
1329;DHT22;658;48.820;9.354;2023-04-28T09:41:18;23.20;45.00
1329;DHT22;658;48.820;9.354;2023-04-28T09:45:21;23.20;45.00
1329;DHT22;658;48.820;9.354;2023-04-28T09:49:23;23.20;45.00
1329;DHT22;658;48.820;9.354;2023-04-28T09:53:24;23.20;44.90
1329;DHT22;658;48.820;9.354;2023-04-28T09:57:31;23.30;45.10
1329;DHT22;658;48.820;9.354;2023-04-28T10:01:42;23.20;45.10
1329;DHT22;658;48.820;9.354;2023-04-28T10:05:43;23.20;45.10
1329;DHT22;658;48.820;9.354;2023-04-28T10:09:47;23.30;45.20
1329;DHT22;658;48.820;9.354;2023-04-28T10:13:52;23.30;45.00
1329;DHT22;658;48.820;9.354;2023-04-28T10:17:53;23.30;45.00
1329;DHT22;658;48.820;9.354;2023-04-28T10:31:13;23.50;45.10
1329;DHT22;658;48.820;9.354;2023-04-28T10:39:20;23.50;45.10
1329;DHT22;658;48.820;9.354;2023-04-28T10:47:27;23.50;45.10
1329;DHT22;658;48.820;9.354;2023-04-28T10:51:30;23.50;45.10
1329;DHT22;658;48.820;9.354;2023-04-28T10:55:34;23.60;45.00
1329;DHT22;658;48.820;9.354;2023-04-28T10:59:41;23.60;44.90
1329;DHT22;658;48.820;9.354;2023-04-28T11:03:48;23.60;45.00
1329;DHT22;658;48.820;9.354;2023-04-28T11:12:29;23.60;44.90
1329;DHT22;658;48.820;9.354;2023-04-28T11:16:32;23.60;45.00
1329;DHT22;658;48.820;9.354;2023-04-28T11:20:34;23.60;44.80
1329;DHT22;658;48.820;9.354;2023-04-28T11:24:35;23.70;44.80
1329;DHT22;658;48.820;9.354;2023-04-28T11:28:49;23.70;44.80
1329;DHT22;658;48.820;9.354;2023-04-28T11:32:55;23.70;44.90
1329;DHT22;658;48.820;9.354;2023-04-28T11:36:57;23.80;44.90
1329;DHT22;658;48.820;9.354;2023-04-28T11:40:58;23.80;45.00
1329;DHT22;658;48.820;9.354;2023-04-28T11:44:59;23.80;45.00
1329;DHT22;658;48.820;9.354;2023-04-28T11:49:05;23.90;45.20
1329;DHT22;658;48.820;9.354;2023-04-28T11:53:06;23.90;45.20
1329;DHT22;658;48.820;9.354;2023-04-28T11:57:19;23.90;45.30
1329;DHT22;658;48.820;9.354;2023-04-28T12:01:19;24.00;45.20
1329;DHT22;658;48.820;9.354;2023-04-28T12:05:20;24.00;45.20
1329;DHT22;658;48.820;9.354;2023-04-28T12:09:21;24.00;45.20
1329;DHT22;658;48.820;9.354;2023-04-28T12:13:24;24.00;45.30
1329;DHT22;658;48.820;9.354;2023-04-28T12:17:32;24.10;45.40
1329;DHT22;658;48.820;9.354;2023-04-28T12:21:33;24.10;45.40
1329;DHT22;658;48.820;9.354;2023-04-28T12:25:44;24.10;45.40
1329;DHT22;658;48.820;9.354;2023-04-28T12:29:49;24.10;45.60
1329;DHT22;658;48.820;9.354;2023-04-28T12:33:50;24.10;45.50
1329;DHT22;658;48.820;9.354;2023-04-28T12:37:54;24.00;45.30
1329;DHT22;658;48.820;9.354;2023-04-28T12:41:55;24.00;45.50
1329;DHT22;658;48.820;9.354;2023-04-28T12:45:58;24.00;46.20
1329;DHT22;658;48.820;9.354;2023-04-28T12:49:59;23.90;45.80
1329;DHT22;658;48.820;9.354;2023-04-28T12:54:03;23.90;45.90
1329;DHT22;658;48.820;9.354;2023-04-28T12:58:04;23.90;46.00
1329;DHT22;658;48.820;9.354;2023-04-28T13:02:07;23.90;45.90
1329;DHT22;658;48.820;9.354;2023-04-28T13:06:07;23.90;46.10
1329;DHT22;658;48.820;9.354;2023-04-28T13:10:10;23.90;46.10
1329;DHT22;658;48.820;9.354;2023-04-28T13:14:10;23.80;46.10
1329;DHT22;658;48.820;9.354;2023-04-28T13:18:13;23.90;46.10
1329;DHT22;658;48.820;9.354;2023-04-28T13:22:14;23.90;46.00
1329;DHT22;658;48.820;9.354;2023-04-28T13:26:15;23.90;46.00
1329;DHT22;658;48.820;9.354;2023-04-28T13:30:15;23.90;45.90
1329;DHT22;658;48.820;9.354;2023-04-28T13:34:21;23.90;45.80
1329;DHT22;658;48.820;9.354;2023-04-28T13:38:22;23.90;45.80
1329;DHT22;658;48.820;9.354;2023-04-28T13:42:23;23.90;45.70
1329;DHT22;658;48.820;9.354;2023-04-28T13:46:23;23.90;45.60
1329;DHT22;658;48.820;9.354;2023-04-28T13:50:24;23.90;45.70
1329;DHT22;658;48.820;9.354;2023-04-28T13:54:25;23.90;45.70
1329;DHT22;658;48.820;9.354;2023-04-28T13:58:28;23.90;45.80
1329;DHT22;658;48.820;9.354;2023-04-28T14:02:29;23.90;46.40
1329;DHT22;658;48.820;9.354;2023-04-28T14:06:30;23.90;45.90
1329;DHT22;658;48.820;9.354;2023-04-28T14:10:30;23.90;45.90
1329;DHT22;658;48.820;9.354;2023-04-28T14:14:32;23.90;45.90
1329;DHT22;658;48.820;9.354;2023-04-28T14:18:35;23.90;45.80
1329;DHT22;658;48.820;9.354;2023-04-28T14:22:41;23.90;45.90
1329;DHT22;658;48.820;9.354;2023-04-28T14:26:42;23.90;45.70
1329;DHT22;658;48.820;9.354;2023-04-28T14:30:43;23.90;45.70
1329;DHT22;658;48.820;9.354;2023-04-28T14:34:43;23.90;45.80
1329;DHT22;658;48.820;9.354;2023-04-28T14:38:44;23.90;45.80
1329;DHT22;658;48.820;9.354;2023-04-28T14:42:45;23.90;45.90
1329;DHT22;658;48.820;9.354;2023-04-28T14:46:46;23.90;45.80
1329;DHT22;658;48.820;9.354;2023-04-28T14:50:52;23.80;45.70
1329;DHT22;658;48.820;9.354;2023-04-28T14:54:53;23.80;45.70
1329;DHT22;658;48.820;9.354;2023-04-28T14:58:56;23.80;45.70
1329;DHT22;658;48.820;9.354;2023-04-28T15:02:59;23.80;45.80
1329;DHT22;658;48.820;9.354;2023-04-28T15:07:02;23.90;45.90
1329;DHT22;658;48.820;9.354;2023-04-28T15:11:05;23.90;45.70
1329;DHT22;658;48.820;9.354;2023-04-28T15:15:06;23.90;45.80
1329;DHT22;658;48.820;9.354;2023-04-28T15:19:07;23.90;45.70
1329;DHT22;658;48.820;9.354;2023-04-28T15:23:07;23.90;45.70
1329;DHT22;658;48.820;9.354;2023-04-28T15:27:10;23.90;45.80
1329;DHT22;658;48.820;9.354;2023-04-28T15:31:11;23.80;45.70
1329;DHT22;658;48.820;9.354;2023-04-28T15:35:12;23.80;45.80
1329;DHT22;658;48.820;9.354;2023-04-28T15:39:12;23.80;45.90
1329;DHT22;658;48.820;9.354;2023-04-28T15:43:15;23.80;45.90
1329;DHT22;658;48.820;9.354;2023-04-28T15:47:15;23.80;45.90
1329;DHT22;658;48.820;9.354;2023-04-28T15:51:16;23.80;45.90
1329;DHT22;658;48.820;9.354;2023-04-28T15:55:20;23.80;46.00
1329;DHT22;658;48.820;9.354;2023-04-28T15:59:21;23.80;46.00
1329;DHT22;658;48.820;9.354;2023-04-28T16:03:24;23.70;46.00
1329;DHT22;658;48.820;9.354;2023-04-28T16:07:27;23.70;46.00
1329;DHT22;658;48.820;9.354;2023-04-28T16:11:30;23.70;46.00
1329;DHT22;658;48.820;9.354;2023-04-28T16:15:31;23.70;46.20
1329;DHT22;658;48.820;9.354;2023-04-28T16:19:33;23.70;46.30
1329;DHT22;658;48.820;9.354;2023-04-28T16:23:36;23.80;46.30
1329;DHT22;658;48.820;9.354;2023-04-28T16:27:39;23.70;46.20
1329;DHT22;658;48.820;9.354;2023-04-28T16:31:43;23.70;46.20
1329;DHT22;658;48.820;9.354;2023-04-28T16:35:52;23.70;46.30
1329;DHT22;658;48.820;9.354;2023-04-28T16:39:53;23.70;46.30
1329;DHT22;658;48.820;9.354;2023-04-28T16:43:55;23.60;46.30
1329;DHT22;658;48.820;9.354;2023-04-28T16:47:56;23.70;46.70
1329;DHT22;658;48.820;9.354;2023-04-28T16:51:58;23.70;46.60
1329;DHT22;658;48.820;9.354;2023-04-28T16:55:59;23.70;46.60
1329;DHT22;658;48.820;9.354;2023-04-28T17:00:00;23.70;46.90
1329;DHT22;658;48.820;9.354;2023-04-28T17:04:01;23.70;47.00
1329;DHT22;658;48.820;9.354;2023-04-28T17:08:05;23.70;47.00
1329;DHT22;658;48.820;9.354;2023-04-28T17:12:06;23.80;47.10
1329;DHT22;658;48.820;9.354;2023-04-28T17:16:07;23.80;47.40
1329;DHT22;658;48.820;9.354;2023-04-28T17:20:11;23.80;46.90
1329;DHT22;658;48.820;9.354;2023-04-28T17:24:17;23.70;46.90
1329;DHT22;658;48.820;9.354;2023-04-28T17:28:17;23.70;46.90
1329;DHT22;658;48.820;9.354;2023-04-28T17:32:18;23.70;46.90
1329;DHT22;658;48.820;9.354;2023-04-28T17:36:19;23.70;46.80
1329;DHT22;658;48.820;9.354;2023-04-28T17:40:22;23.80;46.80
1329;DHT22;658;48.820;9.354;2023-04-28T17:44:25;23.80;46.80
1329;DHT22;658;48.820;9.354;2023-04-28T17:48:26;23.80;46.80
1329;DHT22;658;48.820;9.354;2023-04-28T17:52:27;23.80;47.60
1329;DHT22;658;48.820;9.354;2023-04-28T17:56:27;23.80;47.50
1329;DHT22;658;48.820;9.354;2023-04-28T18:00:28;23.80;47.50
1329;DHT22;658;48.820;9.354;2023-04-28T18:04:29;23.80;47.40
1329;DHT22;658;48.820;9.354;2023-04-28T18:08:32;23.90;47.70
1329;DHT22;658;48.820;9.354;2023-04-28T18:12:32;23.90;47.60
1329;DHT22;658;48.820;9.354;2023-04-28T18:16:33;23.90;47.30
1329;DHT22;658;48.820;9.354;2023-04-28T18:20:36;23.90;47.30
1329;DHT22;658;48.820;9.354;2023-04-28T18:24:39;24.00;47.30
1329;DHT22;658;48.820;9.354;2023-04-28T18:28:47;24.00;47.50
1329;DHT22;658;48.820;9.354;2023-04-28T18:32:47;23.90;47.40
1329;DHT22;658;48.820;9.354;2023-04-28T18:36:51;23.90;47.20
1329;DHT22;658;48.820;9.354;2023-04-28T18:40:54;23.90;47.20
1329;DHT22;658;48.820;9.354;2023-04-28T18:44:55;23.90;47.20
1329;DHT22;658;48.820;9.354;2023-04-28T18:48:57;23.90;47.20
1329;DHT22;658;48.820;9.354;2023-04-28T18:52:59;23.90;47.10
1329;DHT22;658;48.820;9.354;2023-04-28T18:57:03;23.80;47.10
1329;DHT22;658;48.820;9.354;2023-04-28T19:01:04;23.80;47.10
1329;DHT22;658;48.820;9.354;2023-04-28T19:05:07;23.80;47.10
1329;DHT22;658;48.820;9.354;2023-04-28T19:09:11;23.80;47.10
1329;DHT22;658;48.820;9.354;2023-04-28T19:13:11;23.70;47.10
1329;DHT22;658;48.820;9.354;2023-04-28T19:17:13;23.70;47.10
1329;DHT22;658;48.820;9.354;2023-04-28T19:21:14;23.70;47.10
1329;DHT22;658;48.820;9.354;2023-04-28T19:25:17;23.70;47.00
1329;DHT22;658;48.820;9.354;2023-04-28T19:29:18;23.70;47.50
1329;DHT22;658;48.820;9.354;2023-04-28T19:33:19;23.80;47.50
1329;DHT22;658;48.820;9.354;2023-04-28T19:37:20;23.80;47.40
1329;DHT22;658;48.820;9.354;2023-04-28T19:41:21;23.80;47.50
1329;DHT22;658;48.820;9.354;2023-04-28T19:45:22;23.70;47.30
1329;DHT22;658;48.820;9.354;2023-04-28T19:49:22;23.80;47.60
1329;DHT22;658;48.820;9.354;2023-04-28T19:53:23;23.80;47.60
1329;DHT22;658;48.820;9.354;2023-04-28T19:57:23;23.80;47.50
1329;DHT22;658;48.820;9.354;2023-04-28T20:01:24;23.80;47.50
1329;DHT22;658;48.820;9.354;2023-04-28T20:05:25;23.80;47.50
1329;DHT22;658;48.820;9.354;2023-04-28T20:09:25;23.80;47.50
1329;DHT22;658;48.820;9.354;2023-04-28T20:13:26;23.80;47.50
1329;DHT22;658;48.820;9.354;2023-04-28T20:17:27;23.80;47.50
1329;DHT22;658;48.820;9.354;2023-04-28T20:21:30;23.80;47.50
1329;DHT22;658;48.820;9.354;2023-04-28T20:25:36;23.80;47.50
1329;DHT22;658;48.820;9.354;2023-04-28T20:29:39;23.80;47.40
1329;DHT22;658;48.820;9.354;2023-04-28T20:33:40;23.80;47.40
1329;DHT22;658;48.820;9.354;2023-04-28T20:37:43;23.70;47.30
1329;DHT22;658;48.820;9.354;2023-04-28T20:41:44;23.70;47.40
1329;DHT22;658;48.820;9.354;2023-04-28T20:45:45;23.70;47.30
1329;DHT22;658;48.820;9.354;2023-04-28T20:49:45;23.60;47.90
1329;DHT22;658;48.820;9.354;2023-04-28T20:53:46;23.60;47.30
1329;DHT22;658;48.820;9.354;2023-04-28T20:57:47;23.60;47.60
1329;DHT22;658;48.820;9.354;2023-04-28T21:01:50;23.60;47.40
1329;DHT22;658;48.820;9.354;2023-04-28T21:05:52;23.60;47.40
1329;DHT22;658;48.820;9.354;2023-04-28T21:09:53;23.60;47.50
1329;DHT22;658;48.820;9.354;2023-04-28T21:13:56;23.60;47.40
1329;DHT22;658;48.820;9.354;2023-04-28T21:17:57;23.70;47.50
1329;DHT22;658;48.820;9.354;2023-04-28T21:22:00;23.70;47.50
1329;DHT22;658;48.820;9.354;2023-04-28T21:26:02;23.70;47.50
1329;DHT22;658;48.820;9.354;2023-04-28T21:30:05;23.70;47.60
1329;DHT22;658;48.820;9.354;2023-04-28T21:34:08;23.70;47.40
1329;DHT22;658;48.820;9.354;2023-04-28T21:38:08;23.70;47.40
1329;DHT22;658;48.820;9.354;2023-04-28T21:42:10;23.70;47.30
1329;DHT22;658;48.820;9.354;2023-04-28T21:46:11;23.70;47.30
1329;DHT22;658;48.820;9.354;2023-04-28T21:50:13;23.60;47.30
1329;DHT22;658;48.820;9.354;2023-04-28T21:54:14;23.60;47.30
1329;DHT22;658;48.820;9.354;2023-04-28T21:58:15;23.60;47.30
1329;DHT22;658;48.820;9.354;2023-04-28T22:02:16;23.60;47.50
1329;DHT22;658;48.820;9.354;2023-04-28T22:06:21;23.60;47.40
1329;DHT22;658;48.820;9.354;2023-04-28T22:10:24;23.50;47.60
1329;DHT22;658;48.820;9.354;2023-04-28T22:14:27;23.50;47.60
1329;DHT22;658;48.820;9.354;2023-04-28T22:18:31;23.40;47.60
1329;DHT22;658;48.820;9.354;2023-04-28T22:22:31;23.40;47.60
1329;DHT22;658;48.820;9.354;2023-04-28T22:26:35;23.30;47.60
1329;DHT22;658;48.820;9.354;2023-04-28T22:30:36;23.30;47.70
1329;DHT22;658;48.820;9.354;2023-04-28T22:34:37;23.30;47.70
1329;DHT22;658;48.820;9.354;2023-04-28T22:38:37;23.20;47.70
1329;DHT22;658;48.820;9.354;2023-04-28T22:42:41;23.20;47.70
1329;DHT22;658;48.820;9.354;2023-04-28T22:46:41;23.20;47.70
1329;DHT22;658;48.820;9.354;2023-04-28T22:50:45;23.10;47.70
1329;DHT22;658;48.820;9.354;2023-04-28T22:54:45;23.10;47.70
1329;DHT22;658;48.820;9.354;2023-04-28T22:58:48;23.10;47.80
1329;DHT22;658;48.820;9.354;2023-04-28T23:02:51;23.10;47.70
1329;DHT22;658;48.820;9.354;2023-04-28T23:06:51;23.00;47.70
1329;DHT22;658;48.820;9.354;2023-04-28T23:10:54;23.00;47.70
1329;DHT22;658;48.820;9.354;2023-04-28T23:14:58;23.00;47.70
1329;DHT22;658;48.820;9.354;2023-04-28T23:18:58;23.00;47.70
1329;DHT22;658;48.820;9.354;2023-04-28T23:22:59;23.00;47.70
1329;DHT22;658;48.820;9.354;2023-04-28T23:26:59;22.90;47.70
1329;DHT22;658;48.820;9.354;2023-04-28T23:31:00;22.90;47.70
1329;DHT22;658;48.820;9.354;2023-04-28T23:35:00;22.90;47.70
1329;DHT22;658;48.820;9.354;2023-04-28T23:39:02;22.90;47.70
1329;DHT22;658;48.820;9.354;2023-04-28T23:43:04;22.90;47.70
1329;DHT22;658;48.820;9.354;2023-04-28T23:47:07;22.90;47.80
1329;DHT22;658;48.820;9.354;2023-04-28T23:51:08;22.90;47.80
1329;DHT22;658;48.820;9.354;2023-04-28T23:55:09;22.80;47.60
1329;DHT22;658;48.820;9.354;2023-04-28T23:59:12;22.80;47.70
